Time;durP1;ratioP1;P1;durP2;ratioP2;P2;SDS_P1;SDS_P2;PMS_P1;PMS_P2;Temp;Humidity;BMP_temperature;BMP_pressure;BME280_temperature;BME280_humidity;BME280_pressure;Samples;Min_cycle;Max_cycle;Signal;HPM_P1;HPM_P2
2023/08/25 00:02:03;;;;;;;12.80;9.00;;;;;;;21.06;100.00;99816.09;180237;1254;58183;-75
2023/08/25 00:06:07;;;;;;;8.90;7.90;;;;;;;21.06;100.00;99813.25;180779;1254;45923;-75
2023/08/25 00:10:10;;;;;;;11.30;7.70;;;;;;;21.08;100.00;99803.82;180800;1254;43729;-75
2023/08/25 00:14:14;;;;;;;10.80;9.20;;;;;;;21.14;100.00;99799.58;180579;1253;44760;-75
2023/08/25 00:18:17;;;;;;;12.10;10.40;;;;;;;21.18;100.00;99796.58;180764;1253;46251;-76
2023/08/25 00:22:21;;;;;;;14.90;10.30;;;;;;;21.21;100.00;99786.94;180598;1254;58194;-76
2023/08/25 00:26:24;;;;;;;11.70;10.50;;;;;;;21.23;100.00;99780.02;180520;1254;46070;-77
2023/08/25 00:30:28;;;;;;;10.10;9.10;;;;;;;21.25;100.00;99775.83;179581;1253;46204;-77
2023/08/25 00:34:31;;;;;;;8.80;7.90;;;;;;;21.26;100.00;99770.29;180121;1254;43562;-76
2023/08/25 00:38:34;;;;;;;11.00;7.80;;;;;;;21.30;100.00;99771.61;179395;1253;44078;-76
2023/08/25 00:42:37;;;;;;;8.90;7.50;;;;;;;21.31;100.00;99765.66;179556;1254;59262;-76
2023/08/25 00:46:41;;;;;;;8.10;7.30;;;;;;;21.31;100.00;99768.48;180065;1254;44329;-76
2023/08/25 00:50:45;;;;;;;9.00;7.80;;;;;;;21.23;100.00;99775.46;179495;1253;45983;-76
2023/08/25 00:54:54;;;;;;;6.90;6.10;;;;;;;21.21;100.00;99772.86;179835;1253;47994;-76
2023/08/25 00:58:58;;;;;;;15.40;9.00;;;;;;;21.20;100.00;99774.94;181040;1254;46005;-76
2023/08/25 01:03:01;;;;;;;9.10;8.10;;;;;;;21.21;100.00;99772.16;180355;1253;57889;-77
2023/08/25 01:07:05;;;;;;;8.80;7.90;;;;;;;21.20;100.00;99773.03;180733;1254;44029;-77
2023/08/25 01:11:30;;;;;;;13.40;9.10;;;;;;;21.18;100.00;99769.38;180080;1253;44781;-77
2023/08/25 01:15:35;;;;;;;9.90;8.70;;;;;;;21.15;100.00;99765.67;179178;1254;45996;-76
2023/08/25 01:19:58;;;;;;;10.60;9.60;;;;;;;21.12;100.00;99761.84;179600;1254;45999;-76
2023/08/25 01:24:35;;;;;;;11.00;10.00;;;;;;;21.09;100.00;99763.67;180092;1253;60078;-76
2023/08/25 01:28:41;;;;;;;9.20;8.20;;;;;;;21.02;100.00;99768.63;180124;1255;46125;-76
2023/08/25 01:32:45;;;;;;;10.20;9.10;;;;;;;20.98;100.00;99762.64;180343;1254;46038;-76
2023/08/25 01:36:59;;;;;;;12.40;10.90;;;;;;;20.96;100.00;99745.33;180509;1253;44505;-76
2023/08/25 01:41:21;;;;;;;10.30;8.80;;;;;;;20.99;100.00;99740.67;179580;1254;46032;-76
2023/08/25 01:45:25;;;;;;;11.20;9.90;;;;;;;21.05;100.00;99733.77;179589;1254;59694;-76
2023/08/25 01:49:30;;;;;;;10.40;9.30;;;;;;;21.12;100.00;99727.77;180852;1253;45175;-76
2023/08/25 01:53:33;;;;;;;11.40;10.30;;;;;;;21.15;100.00;99718.45;180543;1254;45961;-77
2023/08/25 01:57:37;;;;;;;14.00;12.40;;;;;;;21.13;100.00;99711.96;180179;1253;45872;-76
2023/08/25 02:01:40;;;;;;;13.20;10.70;;;;;;;21.10;100.00;99700.86;179784;1254;44581;-77
2023/08/25 02:05:43;;;;;;;10.60;9.50;;;;;;;21.11;100.00;99702.20;180190;1254;57211;-77
2023/08/25 02:09:46;;;;;;;12.40;11.30;;;;;;;21.16;100.00;99704.73;180208;1253;44303;-76
2023/08/25 02:13:50;;;;;;;11.50;10.20;;;;;;;21.17;100.00;99711.74;179597;1253;45996;-77
2023/08/25 02:17:53;;;;;;;12.90;10.60;;;;;;;21.24;100.00;99719.54;180062;1254;45993;-76
2023/08/25 02:21:56;;;;;;;12.10;10.90;;;;;;;21.33;100.00;99725.00;180105;1254;46006;-77
2023/08/25 02:26:00;;;;;;;13.80;12.30;;;;;;;21.42;100.00;99720.87;179790;1254;58222;-77
2023/08/25 02:30:03;;;;;;;12.10;10.60;;;;;;;21.46;100.00;99725.73;179633;1253;46137;-77
2023/08/25 02:34:06;;;;;;;12.00;10.70;;;;;;;21.51;100.00;99721.05;179438;1253;45858;-77
2023/08/25 02:38:10;;;;;;;10.30;14.20;;;;;;;21.51;100.00;99720.52;179656;1253;45986;-76
2023/08/25 02:42:13;;;;;;;14.20;10.00;;;;;;;21.41;100.00;99725.79;179831;1253;46118;-77
2023/08/25 02:46:17;;;;;;;13.40;11.40;;;;;;;21.31;100.00;99718.34;180090;1253;57907;-77
2023/08/25 02:50:21;;;;;;;11.60;10.00;;;;;;;21.17;100.00;99722.02;179861;1253;45983;-76
2023/08/25 02:54:24;;;;;;;12.50;9.80;;;;;;;21.05;100.00;99725.69;180814;1254;45000;-77
2023/08/25 02:58:27;;;;;;;14.90;12.10;;;;;;;20.96;100.00;99720.61;179835;1253;46047;-76
2023/08/25 03:02:31;;;;;;;12.80;10.80;;;;;;;20.81;100.00;99712.79;181569;1253;44121;-76
2023/08/25 03:06:35;;;;;;;11.40;10.50;;;;;;;20.70;100.00;99709.20;181248;1252;57059;-76
2023/08/25 03:10:42;;;;;;;12.20;10.40;;;;;;;20.65;100.00;99695.81;181288;1253;44215;-76
2023/08/25 03:14:46;;;;;;;12.20;9.80;;;;;;;20.66;100.00;99676.48;181230;1252;44989;-76
2023/08/25 03:18:49;;;;;;;12.80;11.60;;;;;;;20.61;100.00;99658.05;181272;1253;44835;-78
2023/08/25 03:22:54;;;;;;;13.00;9.60;;;;;;;20.59;100.00;99640.10;180120;1254;45986;-78
2023/08/25 03:26:57;;;;;;;8.90;8.10;;;;;;;20.61;100.00;99623.93;181051;1254;58472;-78
2023/08/25 03:31:00;;;;;;;13.90;9.90;;;;;;;20.70;100.00;99616.11;181892;1252;43755;-78
2023/08/25 03:35:04;;;;;;;12.90;9.20;;;;;;;20.72;100.00;99627.91;181961;1254;44008;-78
2023/08/25 03:39:07;;;;;;;8.80;7.20;;;;;;;20.78;100.00;99624.72;181519;1253;43756;-78
2023/08/25 03:43:11;;;;;;;9.80;8.60;;;;;;;20.89;100.00;99614.27;180142;1253;46079;-78
2023/08/25 03:47:14;;;;;;;11.90;8.10;;;;;;;20.99;100.00;99612.19;179459;1253;58674;-78
2023/08/25 03:51:17;;;;;;;8.40;7.70;;;;;;;21.07;100.00;99616.17;179282;1253;46530;-78
2023/08/25 03:55:21;;;;;;;10.10;8.40;;;;;;;21.14;100.00;99617.08;179417;1253;46918;-78
2023/08/25 03:59:29;;;;;;;10.00;8.20;;;;;;;21.22;100.00;99623.63;179629;1253;46131;-78
2023/08/25 04:03:32;;;;;;;8.90;8.20;;;;;;;21.31;100.00;99650.73;180175;1253;45992;-78
2023/08/25 04:07:35;;;;;;;10.50;9.50;;;;;;;21.43;100.00;99650.52;179870;1254;58199;-78
2023/08/25 04:11:38;;;;;;;9.10;8.20;;;;;;;21.56;100.00;99641.91;180416;1253;44119;-78
2023/08/25 04:15:42;;;;;;;10.60;7.70;;;;;;;21.64;100.00;99639.19;179924;1254;46102;-78
2023/08/25 04:19:45;;;;;;;11.40;8.80;;;;;;;21.63;100.00;99640.38;180633;1254;46113;-78
2023/08/25 04:23:48;;;;;;;11.40;7.40;;;;;;;21.66;100.00;99635.35;179788;1254;46147;-78
2023/08/25 04:27:52;;;;;;;13.80;7.60;;;;;;;21.70;100.00;99627.61;180040;1254;58381;-78
2023/08/25 04:31:55;;;;;;;16.90;10.40;;;;;;;21.78;100.00;99629.80;181389;1253;44156;-78
2023/08/25 04:35:59;;;;;;;9.90;8.90;;;;;;;21.87;100.00;99626.52;180016;1253;45989;-78
2023/08/25 04:40:02;;;;;;;10.10;9.00;;;;;;;21.87;100.00;99622.39;179617;1253;46092;-79
2023/08/25 04:44:06;;;;;;;9.90;8.00;;;;;;;21.87;100.00;99617.36;180149;1253;45931;-78
2023/08/25 04:48:09;;;;;;;11.20;8.30;;;;;;;21.83;100.00;99616.36;180196;1253;58200;-78
2023/08/25 04:52:13;;;;;;;8.00;7.30;;;;;;;21.73;100.00;99612.81;180481;1253;44811;-78
2023/08/25 04:56:17;;;;;;;10.20;8.80;;;;;;;21.68;100.00;99607.46;179670;1253;44401;-79
2023/08/25 05:00:21;;;;;;;10.90;9.10;;;;;;;21.67;100.00;99601.63;180260;1254;45906;-78
2023/08/25 05:04:24;;;;;;;14.80;7.90;;;;;;;21.73;100.00;99603.35;180747;1254;46022;-78
2023/08/25 05:08:28;;;;;;;9.50;8.60;;;;;;;21.75;100.00;99603.43;179899;1253;58413;-78
2023/08/25 05:12:31;;;;;;;9.30;8.40;;;;;;;21.70;100.00;99600.70;180057;1254;44808;-78
2023/08/25 05:16:34;;;;;;;11.30;9.40;;;;;;;21.72;100.00;99600.45;179813;1253;46031;-78
2023/08/25 05:20:37;;;;;;;10.10;7.40;;;;;;;21.75;100.00;99597.75;179906;1253;44036;-78
2023/08/25 05:24:41;;;;;;;9.00;8.00;;;;;;;21.79;100.00;99599.08;180423;1254;43977;-78
2023/08/25 05:28:45;;;;;;;10.40;7.80;;;;;;;21.91;100.00;99605.33;180839;1254;58994;-78
2023/08/25 05:32:48;;;;;;;10.10;9.10;;;;;;;22.01;100.00;99604.31;179432;1253;46032;-78
2023/08/25 05:36:51;;;;;;;9.30;8.00;;;;;;;22.31;100.00;99598.83;179688;1253;46559;-78
2023/08/25 05:40:55;;;;;;;9.80;8.80;;;;;;;22.74;100.00;99589.27;180172;1253;43776;-78
2023/08/25 05:44:58;;;;;;;13.30;7.00;;;;;;;23.14;100.00;99591.40;180096;1257;46130;-79
2023/08/25 05:49:02;;;;;;;10.20;7.50;;;;;;;23.46;100.00;99592.34;180146;1254;57993;-79
2023/08/25 05:53:05;;;;;;;11.30;7.60;;;;;;;23.60;100.00;99594.88;179862;1253;45902;-78
2023/08/25 05:57:09;;;;;;;8.10;7.30;;;;;;;23.83;100.00;99595.66;180675;1254;44563;-78
2023/08/25 06:01:12;;;;;;;8.40;7.60;;;;;;;24.08;100.00;99590.10;180210;1254;45117;-78
2023/08/25 06:05:16;;;;;;;10.20;7.30;;;;;;;24.30;100.00;99587.21;180492;1254;46083;-78
2023/08/25 06:09:20;;;;;;;8.90;7.60;;;;;;;24.45;100.00;99584.75;180183;1254;59512;-78
2023/08/25 06:13:23;;;;;;;8.10;7.30;;;;;;;24.71;100.00;99587.04;180541;1253;45987;-79
2023/08/25 06:17:27;;;;;;;7.50;6.50;;;;;;;25.06;100.00;99595.45;180869;1254;46088;-79
2023/08/25 06:21:30;;;;;;;7.90;6.50;;;;;;;25.49;100.00;99593.31;180390;1253;44708;-79
2023/08/25 06:25:36;;;;;;;7.00;6.30;;;;;;;25.97;100.00;99600.41;180347;1254;46060;-79
2023/08/25 06:29:40;;;;;;;6.40;5.90;;;;;;;26.39;100.00;99593.17;180706;1254;57102;-79
2023/08/25 06:33:44;;;;;;;6.60;6.00;;;;;;;26.68;100.00;99592.23;180862;1253;43726;-79
2023/08/25 06:37:49;;;;;;;7.70;6.90;;;;;;;26.98;99.81;99593.27;180862;1254;45994;-79
2023/08/25 06:41:54;;;;;;;7.50;6.70;;;;;;;27.36;98.85;99587.12;180732;1253;44468;-78
2023/08/25 06:45:58;;;;;;;5.40;4.30;;;;;;;27.61;96.48;99591.09;180544;1254;43791;-79
2023/08/25 06:50:02;;;;;;;9.20;6.30;;;;;;;27.75;94.94;99585.29;180684;1254;58564;-79
2023/08/25 06:54:07;;;;;;;8.40;5.80;;;;;;;28.14;94.46;99581.55;180767;1253;45987;-79
2023/08/25 06:58:11;;;;;;;7.90;6.20;;;;;;;28.68;92.50;99578.36;180767;1252;46054;-79
2023/08/25 07:02:16;;;;;;;7.40;4.30;;;;;;;29.16;88.70;99568.02;181079;1254;45053;-79
2023/08/25 07:06:20;;;;;;;9.40;6.40;;;;;;;29.37;85.32;99566.18;181107;1254;45927;-79
2023/08/25 07:10:24;;;;;;;8.00;6.10;;;;;;;29.47;84.89;99561.81;181079;1254;59507;-79
2023/08/25 07:14:30;;;;;;;6.60;5.40;;;;;;;29.46;84.86;99559.06;180950;1254;45998;-79
2023/08/25 07:18:35;;;;;;;9.50;5.70;;;;;;;29.52;85.46;99553.70;181231;1254;45100;-78
2023/08/25 07:22:40;;;;;;;7.40;4.90;;;;;;;29.83;84.38;99556.62;180995;1254;44031;-79
2023/08/25 07:26:45;;;;;;;4.90;4.20;;;;;;;30.08;81.76;99561.38;181161;1254;44109;-78
2023/08/25 07:30:51;;;;;;;9.30;3.90;;;;;;;30.25;78.70;99566.20;180819;1254;62462;-78
2023/08/25 07:34:57;;;;;;;4.70;4.30;;;;;;;30.38;78.24;99565.04;181092;1253;44964;-79
2023/08/25 07:39:01;;;;;;;7.10;4.60;;;;;;;30.49;76.78;99563.66;181188;1253;45968;-79
2023/08/25 07:43:06;;;;;;;8.30;4.30;;;;;;;30.63;76.24;99563.05;180975;1253;44086;-80
2023/08/25 07:47:10;;;;;;;6.10;3.70;;;;;;;30.72;75.66;99566.55;181151;1254;46787;-83
2023/08/25 07:51:16;;;;;;;4.40;3.70;;;;;;;30.81;75.59;99561.52;180573;1253;60903;-83
2023/08/25 07:55:34;;;;;;;9.10;5.20;;;;;;;30.95;75.63;99558.02;180695;1254;45982;-82
2023/08/25 07:59:38;;;;;;;9.30;4.30;;;;;;;31.11;76.10;99553.52;180721;1254;45981;-82
2023/08/25 08:03:42;;;;;;;9.60;3.60;;;;;;;31.26;73.86;99544.64;180891;1254;44620;-82
2023/08/25 08:07:50;;;;;;;;;;;;;;;31.28;71.13;99545.05;181299;1253;46005;-82
2023/08/25 08:11:55;;;;;;;5.40;4.50;;;;;;;31.39;70.96;99542.70;181181;1254;57882;-82
2023/08/25 08:15:59;;;;;;;4.40;2.60;;;;;;;31.55;70.60;99538.88;181018;1257;44026;-82
2023/08/25 08:20:05;;;;;;;6.00;4.10;;;;;;;31.57;69.69;99542.09;181356;1253;46054;-82
2023/08/25 08:24:10;;;;;;;4.10;3.40;;;;;;;31.64;66.45;99540.02;180741;1254;48978;-82
2023/08/25 08:28:15;;;;;;;2.60;2.40;;;;;;;31.71;67.17;99540.08;180937;1254;44012;-82
2023/08/25 08:32:19;;;;;;;5.70;3.20;;;;;;;31.61;63.68;99546.96;181225;1254;59840;-82
2023/08/25 08:36:24;;;;;;;4.50;2.90;;;;;;;31.53;64.67;99546.25;180869;1253;44591;-82
2023/08/25 08:40:31;;;;;;;5.60;3.60;;;;;;;31.58;66.96;99547.86;180987;1254;44285;-82
2023/08/25 08:44:37;;;;;;;10.60;3.50;;;;;;;31.47;64.18;99547.21;180945;1254;45917;-82
2023/08/25 08:48:43;;;;;;;8.40;3.40;;;;;;;31.32;64.56;99547.20;181022;1252;47342;-82
2023/08/25 08:52:48;;;;;;;3.60;2.90;;;;;;;30.82;64.98;99550.89;181018;1255;59099;-81
2023/08/25 08:56:53;;;;;;;5.30;2.90;;;;;;;30.68;66.74;99551.96;180739;1256;45996;-81
2023/08/25 09:00:57;;;;;;;3.80;3.40;;;;;;;30.58;66.48;99557.88;180774;1255;45914;-80
2023/08/25 09:05:11;;;;;;;3.30;2.40;;;;;;;30.57;66.11;99559.91;180886;1255;88297;-80
2023/08/25 09:09:18;;;;;;;6.20;2.90;;;;;;;30.62;67.76;99558.17;181190;1257;43578;-81
2023/08/25 09:13:23;;;;;;;4.10;2.50;;;;;;;30.68;66.06;99563.27;181175;1255;59075;-80
2023/08/25 09:17:27;;;;;;;8.00;3.10;;;;;;;30.74;65.87;99566.98;181509;1256;43557;-81
2023/08/25 09:21:31;;;;;;;4.50;2.70;;;;;;;30.62;68.20;99569.96;181120;1256;44562;-81
2023/08/25 09:25:41;;;;;;;6.50;3.60;;;;;;;30.62;66.74;99577.11;181125;1255;44793;-81
2023/08/25 09:29:46;;;;;;;4.10;2.50;;;;;;;30.64;66.89;99581.48;181449;1256;43439;-82
2023/08/25 09:34:05;;;;;;;5.40;3.30;;;;;;;30.58;66.79;99582.75;180921;1256;58954;-81
2023/08/25 09:38:23;;;;;;;6.50;3.10;;;;;;;30.53;67.54;99581.93;180873;1256;350634;-82
2023/08/25 09:42:29;;;;;;;40.80;7.90;;;;;;;30.70;68.51;99576.53;181362;1256;43833;-81
2023/08/25 09:46:36;;;;;;;5.70;2.70;;;;;;;30.87;66.34;99565.45;181136;1256;44691;-81
2023/08/25 09:50:43;;;;;;;2.70;2.00;;;;;;;30.95;66.76;99565.27;181275;1256;44931;-81
2023/08/25 09:54:49;;;;;;;3.30;2.40;;;;;;;30.95;65.06;99559.02;181451;1256;58637;-81
2023/08/25 09:58:57;;;;;;;5.10;2.20;;;;;;;30.81;66.37;99551.41;181234;1258;44453;-81
2023/08/25 10:03:11;;;;;;;2.40;2.10;;;;;;;30.83;65.85;99553.55;181187;1256;43429;-81
2023/08/25 10:07:21;;;;;;;2.10;2.00;;;;;;;30.96;68.55;99560.28;180830;1257;44737;-81
2023/08/25 10:27:30;;;;;;;3.80;2.10;;;;;;;31.77;64.98;99557.31;180579;1258;43732;-63
2023/08/25 10:31:33;;;;;;;14.70;3.10;;;;;;;31.83;63.46;99551.13;180709;1259;43623;-64
2023/08/25 10:36:04;;;;;;;5.60;2.20;;;;;;;31.87;63.68;99562.16;180850;1259;44949;-63
2023/08/25 10:40:10;;;;;;;6.30;3.30;;;;;;;32.10;66.59;99562.20;180803;1258;58411;-66
2023/08/25 10:44:21;;;;;;;3.40;2.40;;;;;;;32.26;68.06;99561.90;180718;1259;45980;-65
2023/08/25 10:48:27;;;;;;;4.90;2.20;;;;;;;32.42;65.54;99560.90;180617;1258;43548;-63
2023/08/25 10:52:41;;;;;;;4.70;2.50;;;;;;;32.45;63.15;99563.57;180729;1257;44834;-62
2023/08/25 10:56:45;;;;;;;4.60;2.00;;;;;;;32.56;65.27;99564.29;180797;1259;43692;-63
2023/08/25 11:01:18;;;;;;;3.50;2.60;;;;;;;32.60;64.15;99556.91;180714;1259;58372;-64
2023/08/25 11:09:41;;;;;;;2.90;1.80;;;;;;;32.38;64.53;99552.23;180732;1259;43773;-61
2023/08/25 11:14:06;;;;;;;2.30;1.60;;;;;;;32.36;63.45;99554.45;181001;1257;43792;-59
2023/08/25 11:18:09;;;;;;;5.00;2.10;;;;;;;32.40;64.59;99550.91;180261;1258;43805;-82
2023/08/25 11:22:13;;;;;;;8.30;2.40;;;;;;;32.49;63.47;99546.59;180148;1257;58511;-82
2023/08/25 11:26:17;;;;;;;3.10;1.50;;;;;;;32.59;63.40;99550.71;180036;1259;45745;-82
2023/08/25 11:30:21;;;;;;;2.40;1.50;;;;;;;32.71;63.68;99540.90;180231;1257;45931;-82
2023/08/25 11:34:25;;;;;;;2.50;2.00;;;;;;;32.63;62.25;99539.61;180122;1259;44074;-81
2023/08/25 11:38:30;;;;;;;2.10;1.60;;;;;;;32.48;61.43;99545.38;180463;1258;43987;-81
2023/08/25 11:42:34;;;;;;;4.20;1.60;;;;;;;32.39;62.75;99550.47;179908;1259;60504;-82
2023/08/25 11:46:38;;;;;;;5.70;2.60;;;;;;;32.26;62.61;99560.09;180365;1258;44695;-81
2023/08/25 11:50:43;;;;;;;2.60;1.70;;;;;;;32.09;63.24;99559.79;180249;1258;44226;-81
2023/08/25 11:54:51;;;;;;;3.80;1.80;;;;;;;32.24;64.35;99565.22;180570;1259;44224;-80
2023/08/25 11:59:00;;;;;;;5.20;1.70;;;;;;;32.21;64.25;99557.75;180449;1259;44302;-81
2023/08/25 12:03:14;;;;;;;6.40;1.30;;;;;;;32.16;64.07;99556.27;180450;1259;60124;-81
2023/08/25 12:07:25;;;;;;;4.60;1.70;;;;;;;32.26;63.29;99555.84;180303;1259;46037;-81
2023/08/25 12:11:33;;;;;;;3.30;2.70;;;;;;;32.22;64.11;99548.79;180513;1257;44596;-81
2023/08/25 12:15:45;;;;;;;2.30;1.70;;;;;;;32.25;64.51;99548.61;180560;1258;46372;-81
2023/08/25 12:19:54;;;;;;;3.80;1.80;;;;;;;32.32;66.20;99553.98;180403;1258;45269;-81
2023/08/25 12:23:59;;;;;;;2.10;1.60;;;;;;;32.19;65.76;99553.77;180462;1258;58243;-81
2023/08/25 12:28:09;;;;;;;2.40;1.50;;;;;;;32.09;65.48;99559.67;180383;1258;43684;-81
2023/08/25 12:32:14;;;;;;;2.90;1.30;;;;;;;32.21;64.78;99556.59;180861;1259;43672;-81
2023/08/25 12:36:20;;;;;;;3.80;2.00;;;;;;;32.32;64.26;99558.66;180623;1262;46168;-82
2023/08/25 12:40:33;;;;;;;3.80;1.10;;;;;;;32.40;62.54;99564.77;180522;1259;44595;-81
2023/08/25 12:44:37;;;;;;;3.10;1.30;;;;;;;32.61;64.29;99565.73;180220;1259;58350;-81
2023/08/25 12:48:41;;;;;;;2.60;1.50;;;;;;;32.82;63.93;99561.75;180236;1259;45296;-81
2023/08/25 12:52:45;;;;;;;2.80;2.00;;;;;;;32.90;62.91;99561.58;180223;1259;45933;-82
2023/08/25 12:56:51;;;;;;;;;;;;;;;32.99;62.91;99558.45;180306;1258;44542;-83
2023/08/25 13:00:56;;;;;;;5.30;2.50;;;;;;;32.89;61.95;99560.48;180016;1258;44513;-83
2023/08/25 13:05:01;;;;;;;7.20;2.60;;;;;;;32.70;62.79;99565.23;179757;1259;60126;-82
2023/08/25 13:09:05;;;;;;;6.10;2.70;;;;;;;32.78;62.70;99562.36;180406;1258;43583;-81
2023/08/25 13:13:09;;;;;;;14.40;3.20;;;;;;;32.89;64.15;99564.72;180501;1259;43785;-81
2023/08/25 13:17:12;;;;;;;2.50;1.80;;;;;;;32.80;64.18;99565.40;180169;1259;44363;-82
2023/08/25 13:21:16;;;;;;;4.40;2.40;;;;;;;32.67;63.76;99566.76;180086;1260;45333;-81
2023/08/25 13:25:20;;;;;;;2.30;2.10;;;;;;;32.81;64.85;99570.52;180403;1259;58431;-81
2023/08/25 13:29:24;;;;;;;4.40;2.70;;;;;;;32.70;64.20;99570.97;180504;1260;44036;-81
2023/08/25 13:33:28;;;;;;;4.10;3.10;;;;;;;32.71;64.41;99571.27;180420;1259;45128;-81
2023/08/25 13:37:35;;;;;;;6.20;2.30;;;;;;;32.67;64.95;99566.77;180958;1260;43529;-81
2023/08/25 13:41:39;;;;;;;8.70;3.90;;;;;;;32.58;65.43;99564.91;180878;1259;46111;-82
2023/08/25 13:45:46;;;;;;;4.90;3.10;;;;;;;32.54;67.19;99561.55;181172;1258;58597;-82
2023/08/25 13:49:50;;;;;;;5.00;2.30;;;;;;;32.45;66.49;99559.11;180529;1261;44046;-81
2023/08/25 13:53:53;;;;;;;4.50;2.90;;;;;;;32.54;64.27;99558.26;181099;1262;43677;-80
2023/08/25 13:57:59;;;;;;;9.80;4.00;;;;;;;32.53;66.40;99557.05;180342;1261;44074;-83
2023/08/25 14:02:07;;;;;;;4.70;3.10;;;;;;;32.57;66.59;99558.10;180418;1261;44296;-82
2023/08/25 14:06:10;;;;;;;4.70;2.20;;;;;;;32.59;65.49;99554.23;180246;1261;57988;-82
2023/08/25 14:10:15;;;;;;;5.80;3.20;;;;;;;32.61;66.58;99567.33;180517;1260;44374;-83
2023/08/25 14:14:21;;;;;;;5.70;2.80;;;;;;;32.58;63.79;99578.45;180190;1259;44090;-82
2023/08/25 14:18:25;;;;;;;;;;;;;;;32.30;65.48;99575.84;180393;1261;44163;-82
2023/08/25 14:22:33;;;;;;;4.30;2.30;;;;;;;32.14;67.14;99570.36;180127;1260;45813;-81
2023/08/25 14:26:37;;;;;;;3.20;2.00;;;;;;;31.98;67.81;99576.41;180296;1262;59254;-81
2023/08/25 14:30:42;;;;;;;;;;;;;;;31.83;68.05;99565.54;180452;1259;46037;-81
2023/08/25 14:34:46;;;;;;;3.80;2.60;;;;;;;31.46;69.88;99570.95;180550;1264;47996;-81
2023/08/25 14:38:51;;;;;;;2.20;2.00;;;;;;;31.27;70.04;99582.09;180126;1262;45050;-81
2023/08/25 14:42:58;;;;;;;4.90;2.70;;;;;;;31.13;71.00;99589.27;180337;1259;45217;-81
2023/08/25 14:47:03;;;;;;;5.30;3.90;;;;;;;31.04;72.80;99601.16;180232;1259;58721;-81
2023/08/25 14:51:08;;;;;;;5.90;2.10;;;;;;;30.90;72.73;99611.80;180194;1262;43811;-82
2023/08/25 14:55:12;;;;;;;4.00;2.70;;;;;;;30.77;72.46;99612.66;180026;1261;44079;-81
2023/08/25 14:59:17;;;;;;;5.70;2.90;;;;;;;30.64;74.52;99612.23;180182;1263;46473;-81
2023/08/25 15:03:22;;;;;;;18.80;3.70;;;;;;;30.31;77.69;99605.58;180593;1260;45986;-82
2023/08/25 15:07:27;;;;;;;5.70;3.00;;;;;;;29.94;79.44;99583.77;180134;1259;57916;-81
2023/08/25 15:11:32;;;;;;;7.20;1.80;;;;;;;29.72;81.91;99555.01;180093;1261;45998;-83
2023/08/25 15:15:36;;;;;;;5.40;3.20;;;;;;;29.56;82.21;99536.41;179536;1260;44820;-83
2023/08/25 15:19:43;;;;;;;2.80;2.50;;;;;;;29.27;87.04;99551.36;179609;1260;46150;-83
2023/08/25 15:23:48;;;;;;;4.40;3.30;;;;;;;29.25;87.61;99548.99;180145;1259;44017;-82
2023/08/25 15:27:52;;;;;;;5.10;3.80;;;;;;;29.25;88.92;99548.02;180008;1261;59887;-82
2023/08/25 15:31:59;;;;;;;5.10;3.10;;;;;;;28.76;92.76;99556.63;179464;1260;46103;-81
2023/08/25 15:36:04;;;;;;;4.30;3.60;;;;;;;28.31;95.90;99554.80;179606;1260;46003;-83
2023/08/25 15:40:10;;;;;;;4.10;3.70;;;;;;;28.05;98.80;99559.48;179582;1259;44507;-82
2023/08/25 15:44:15;;;;;;;5.20;3.40;;;;;;;27.93;99.87;99559.28;179615;1260;46111;-82
2023/08/25 15:48:23;;;;;;;5.10;3.30;;;;;;;27.93;100.00;99563.00;179497;1259;59862;-82
2023/08/25 15:52:30;;;;;;;5.80;3.50;;;;;;;28.00;99.76;99561.04;179777;1259;45895;-82
2023/08/25 15:56:36;;;;;;;4.10;3.50;;;;;;;28.06;99.98;99563.65;179669;1260;46867;-81
2023/08/25 16:00:40;;;;;;;4.20;3.90;;;;;;;28.05;100.00;99564.96;179583;1259;44437;-82
2023/08/25 16:04:43;;;;;;;3.60;3.30;;;;;;;28.02;99.77;99566.57;179462;1259;44703;-82
2023/08/25 16:08:47;;;;;;;6.00;3.90;;;;;;;28.10;100.00;99568.66;179657;1259;58358;-82
2023/08/25 16:12:59;;;;;;;6.00;3.90;;;;;;;28.17;99.61;99572.08;179560;1260;43974;-82
2023/08/25 16:17:02;;;;;;;7.00;2.90;;;;;;;28.09;99.85;99579.81;179820;1260;44162;-83
2023/08/25 16:21:08;;;;;;;2.80;2.50;;;;;;;27.99;99.72;99581.35;179156;1260;46008;-83
2023/08/25 16:25:11;;;;;;;2.90;2.70;;;;;;;27.89;94.14;99585.58;179188;1261;46368;-83
2023/08/25 16:29:17;;;;;;;2.90;2.30;;;;;;;27.94;93.89;99589.57;179216;1260;58196;-83
2023/08/25 16:33:23;;;;;;;6.00;2.70;;;;;;;27.85;91.14;99592.91;179140;1260;45974;-82
2023/08/25 16:37:27;;;;;;;6.80;3.00;;;;;;;27.78;92.31;99590.55;179016;1262;45994;-83
2023/08/25 16:41:30;;;;;;;6.70;2.20;;;;;;;27.74;94.51;99589.75;179152;1261;46154;-82
2023/08/25 16:45:33;;;;;;;4.10;2.40;;;;;;;27.75;95.54;99595.44;179499;1260;46555;-82
2023/08/25 16:49:36;;;;;;;2.80;2.10;;;;;;;27.76;96.19;99603.16;179123;1260;60901;-82
2023/08/25 16:53:40;;;;;;;3.20;1.80;;;;;;;27.74;93.56;99608.31;178899;1260;44767;-82
2023/08/25 17:02:38;;;;;;;6.30;2.70;;;;;;;27.60;94.38;99602.16;142715;1284;46412;-62
2023/08/25 17:06:41;;;;;;;3.80;2.90;;;;;;;27.48;93.03;99600.10;179917;1259;43525;-82
2023/08/25 17:10:45;;;;;;;4.60;2.30;;;;;;;27.35;93.63;99602.00;179988;1259;57637;-82
2023/08/25 17:14:48;;;;;;;5.40;3.80;;;;;;;27.26;93.54;99605.39;179968;1259;44623;-81
2023/08/25 17:18:52;;;;;;;4.60;2.90;;;;;;;27.13;94.49;99609.70;179877;1259;45993;-81
2023/08/25 17:22:55;;;;;;;6.50;3.40;;;;;;;26.91;95.52;99611.14;179798;1259;46093;-81
2023/08/25 17:27:00;;;;;;;10.10;6.00;;;;;;;26.71;96.57;99610.71;179983;1259;44156;-80
2023/08/25 17:31:09;;;;;;;11.40;7.40;;;;;;;26.63;99.03;99614.89;179973;1258;58862;-81
2023/08/25 17:35:14;;;;;;;12.00;7.60;;;;;;;26.65;99.97;99610.52;179669;1259;43809;-82
2023/08/25 17:39:17;;;;;;;11.70;7.80;;;;;;;26.68;100.00;99606.31;179467;1262;46006;-83
2023/08/25 17:43:21;;;;;;;21.50;9.50;;;;;;;26.70;100.00;99597.98;179648;1259;46036;-82
2023/08/25 17:47:26;;;;;;;19.00;10.80;;;;;;;26.61;100.00;99602.72;179830;1259;46468;-83
2023/08/25 17:51:29;;;;;;;26.10;10.80;;;;;;;26.51;100.00;99608.48;179724;1259;60287;-83
2023/08/25 17:55:34;;;;;;;27.60;12.40;;;;;;;26.43;100.00;99598.95;179658;1259;47719;-83
2023/08/25 17:59:40;;;;;;;21.70;10.70;;;;;;;26.40;100.00;99597.48;179708;1259;44826;-82
2023/08/25 18:03:44;;;;;;;7.50;4.90;;;;;;;26.44;100.00;99592.63;179471;1259;46071;-83
2023/08/25 18:07:48;;;;;;;6.50;4.50;;;;;;;26.49;100.00;99593.85;179804;1259;45088;-83
2023/08/25 18:11:52;;;;;;;17.40;5.40;;;;;;;26.48;100.00;99598.27;179720;1259;59967;-82
2023/08/25 18:15:57;;;;;;;7.70;4.90;;;;;;;26.38;100.00;99606.34;179688;1259;44785;-81
2023/08/25 18:20:02;;;;;;;14.30;6.30;;;;;;;26.38;100.00;99611.47;179579;1259;44693;-82
2023/08/25 18:24:07;;;;;;;8.60;6.00;;;;;;;26.37;100.00;99618.10;179681;1259;46150;-82
2023/08/25 18:28:10;;;;;;;20.30;7.90;;;;;;;26.24;100.00;99614.71;179609;1259;45652;-82
2023/08/25 18:32:15;;;;;;;15.30;5.70;;;;;;;26.11;100.00;99620.30;179660;1259;59546;-82
2023/08/25 18:36:19;;;;;;;7.00;4.10;;;;;;;25.99;100.00;99618.02;179442;1260;44110;-82
2023/08/25 18:40:22;;;;;;;11.30;8.70;;;;;;;25.95;100.00;99623.02;179277;1259;45079;-82
2023/08/25 18:44:26;;;;;;;11.50;7.60;;;;;;;25.90;100.00;99617.35;179503;1262;46010;-82
2023/08/25 18:48:29;;;;;;;9.40;6.00;;;;;;;25.89;100.00;99611.33;179258;1259;44093;-82
2023/08/25 18:52:33;;;;;;;9.70;5.80;;;;;;;25.80;100.00;99600.93;179293;1259;59635;-82
2023/08/25 18:56:37;;;;;;;6.40;5.50;;;;;;;25.72;100.00;99611.41;179480;1258;44742;-81
2023/08/25 19:00:44;;;;;;;9.20;6.00;;;;;;;25.69;100.00;99614.83;179307;1259;44782;-82
2023/08/25 19:04:49;;;;;;;12.00;6.60;;;;;;;25.63;100.00;99608.46;179247;1259;44585;-82
2023/08/25 19:08:52;;;;;;;5.70;4.40;;;;;;;25.57;100.00;99621.95;179677;1259;45491;-82
2023/08/25 19:12:56;;;;;;;10.00;4.20;;;;;;;25.59;100.00;99636.54;179590;1259;59670;-82
2023/08/25 19:17:00;;;;;;;7.30;3.40;;;;;;;25.64;100.00;99636.27;180365;1259;49123;-83